createdAt,value
2022-12-12T00:01:37.760Z,97958.22
2022-12-12T00:03:11.147Z,97967.72
2022-12-12T00:04:44.401Z,97970.91
2022-12-12T00:06:18.050Z,97976.03
2022-12-12T00:07:51.462Z,97985.56
2022-12-12T00:09:24.654Z,97985.47
2022-12-12T00:10:57.274Z,97998.56
2022-12-12T00:12:30.680Z,97993.53
2022-12-12T00:14:05.348Z,97992.75
2022-12-12T00:15:38.600Z,97983.16
2022-12-12T00:17:13.158Z,97994.44
2022-12-12T00:18:46.653Z,97994.56
2022-12-12T00:20:20.209Z,97998.22
2022-12-12T00:21:53.327Z,97991.47
2022-12-12T00:23:27.197Z,97987.94
2022-12-12T00:25:00.679Z,97991.38
2022-12-12T00:26:36.106Z,97999.91
2022-12-12T00:28:09.310Z,98007.59
2022-12-12T00:29:42.586Z,98010.09
2022-12-12T00:31:16.546Z,98010.09
2022-12-12T00:32:51.305Z,98016.00
2022-12-12T00:34:24.479Z,98009.72
2022-12-12T00:35:58.300Z,98008.03
2022-12-12T00:37:31.683Z,98016.34
2022-12-12T00:39:05.709Z,98010.28
2022-12-12T00:40:38.949Z,98024.66
2022-12-12T00:42:12.128Z,98023.66
2022-12-12T00:43:45.709Z,98033.22
2022-12-12T00:45:19.342Z,98035.03
2022-12-12T00:46:52.779Z,98032.25
2022-12-12T00:48:27.773Z,98027.81
2022-12-12T00:50:01.209Z,98026.13
2022-12-12T00:51:34.706Z,98023.53
2022-12-12T00:53:07.919Z,98026.94
2022-12-12T00:54:41.059Z,98033.94
2022-12-12T00:56:16.718Z,98026.22
2022-12-12T00:57:50.162Z,98033.94
2022-12-12T00:59:23.342Z,98042.69
2022-12-12T01:00:56.475Z,98054.06
2022-12-12T01:02:29.914Z,98053.06
2022-12-12T01:04:06.461Z,98051.69
2022-12-12T01:05:39.749Z,98059.00
2022-12-12T01:07:12.892Z,98051.13
2022-12-12T01:08:46.474Z,98056.28
2022-12-12T01:10:20.432Z,98049.19
2022-12-12T01:11:53.590Z,98052.56
2022-12-12T01:13:27.148Z,98050.59
2022-12-12T01:15:00.579Z,98058.41
2022-12-12T01:16:34.485Z,98060.94
2022-12-12T01:18:08.333Z,98051.31
2022-12-12T01:19:43.069Z,98051.09
2022-12-12T01:21:18.446Z,98049.50
2022-12-12T01:22:51.993Z,98044.63
2022-12-12T01:24:25.302Z,98048.16
2022-12-12T01:26:02.350Z,98052.66
2022-12-12T01:27:35.645Z,98042.13
2022-12-12T01:29:09.142Z,98051.69
2022-12-12T01:30:42.329Z,98054.25
2022-12-12T01:32:15.481Z,98063.78
2022-12-12T01:33:48.828Z,98055.75
2022-12-12T01:35:24.021Z,98055.75
2022-12-12T01:36:57.257Z,98070.38
2022-12-12T01:38:30.462Z,98061.47
2022-12-12T01:40:06.113Z,98063.06
2022-12-12T01:41:39.557Z,98064.78
2022-12-12T01:43:12.766Z,98069.91
2022-12-12T01:44:49.636Z,98071.50
2022-12-12T01:46:44.490Z,98061.97
2022-12-12T01:48:16.878Z,98058.25
2022-12-12T01:49:54.945Z,98064.31
2022-12-12T01:51:29.858Z,98069.56
2022-12-12T01:53:03.349Z,98062.59
2022-12-12T01:54:40.939Z,98058.94
2022-12-12T01:56:17.156Z,98053.56
2022-12-12T01:57:53.829Z,98059.69
2022-12-12T01:59:28.338Z,98049.19
2022-12-12T02:01:01.355Z,98051.63
2022-12-12T02:02:34.671Z,98053.22
2022-12-12T02:04:09.370Z,98054.81
2022-12-12T02:05:47.176Z,98061.63
2022-12-12T02:07:21.700Z,98068.47
2022-12-12T02:08:58.442Z,98072.84
2022-12-12T02:10:31.846Z,98070.16
2022-12-12T02:12:06.987Z,98063.09
2022-12-12T02:13:39.415Z,98056.94
2022-12-12T02:15:13.751Z,98033.69
2022-12-12T02:17:05.831Z,98053.44
2022-12-12T02:18:46.026Z,98057.72
2022-12-12T02:20:54.491Z,98052.47
2022-12-12T02:22:43.472Z,98050.75
2022-12-12T02:24:44.138Z,98062.56
2022-12-12T02:26:47.429Z,98074.16
2022-12-12T02:28:41.302Z,98062.56
2022-12-12T02:30:24.601Z,98054.69
2022-12-12T02:32:06.538Z,98066.19
2022-12-12T02:33:43.777Z,98063.72
2022-12-12T02:35:21.014Z,98061.63
2022-12-12T02:37:04.037Z,98070.16
2022-12-12T02:38:45.857Z,98068.34
2022-12-12T02:40:24.134Z,98076.88
2022-12-12T02:42:04.660Z,98075.31
2022-12-12T02:43:46.398Z,98075.91
2022-12-12T02:45:29.009Z,98073.09
2022-12-12T02:47:09.807Z,98087.00
2022-12-12T02:48:49.845Z,98083.47
2022-12-12T02:50:26.283Z,98080.06
2022-12-12T02:52:02.340Z,98081.91
2022-12-12T02:53:36.065Z,98075.13
2022-12-12T02:55:10.731Z,98074.44
2022-12-12T02:56:48.102Z,98072.84
2022-12-12T02:58:21.555Z,98084.34
2022-12-12T02:59:58.652Z,98077.50
2022-12-12T03:01:45.560Z,98084.44
2022-12-12T03:03:55.452Z,98063.56
2022-12-12T03:06:00.954Z,98059.41
2022-12-12T03:07:50.681Z,98063.94
2022-12-12T03:09:35.321Z,98076.94
2022-12-12T03:11:11.388Z,98064.94
2022-12-12T03:13:00.797Z,98062.34
2022-12-12T03:14:48.554Z,98075.53
2022-12-12T03:16:27.633Z,98075.47
2022-12-12T03:18:12.456Z,98076.41
2022-12-12T03:19:57.313Z,98072.84
2022-12-12T03:21:39.556Z,98077.13
2022-12-12T03:23:17.266Z,98085.06
2022-12-12T03:24:56.849Z,98079.91
2022-12-12T03:26:35.631Z,98080.78
2022-12-12T03:28:14.597Z,98079.81
2022-12-12T03:29:54.463Z,98078.00
2022-12-12T03:31:32.549Z,98081.41
2022-12-12T03:33:16.010Z,98087.41
2022-12-12T03:34:56.913Z,98086.41
2022-12-12T03:36:36.602Z,98085.56
2022-12-12T03:38:13.923Z,98079.19
2022-12-12T03:39:52.111Z,98079.91
2022-12-12T03:41:30.580Z,98080.66
2022-12-12T03:43:08.600Z,98074.50
2022-12-12T03:44:48.011Z,98085.19
2022-12-12T03:46:26.452Z,98095.81
2022-12-12T03:48:06.258Z,98088.97
2022-12-12T03:49:43.569Z,98091.06
2022-12-12T03:51:24.843Z,98098.63
2022-12-12T03:53:03.074Z,98095.31
2022-12-12T03:54:43.711Z,98102.28
2022-12-12T03:56:32.851Z,98100.47
2022-12-12T03:58:11.209Z,98099.47
2022-12-12T03:59:48.586Z,98104.72
2022-12-12T04:01:26.348Z,98096.09
2022-12-12T04:03:07.264Z,98107.63
2022-12-12T04:04:48.524Z,98104.97
2022-12-12T04:06:31.521Z,98110.22
2022-12-12T04:08:09.844Z,98109.22
2022-12-12T04:10:01.919Z,98116.06
2022-12-12T04:11:58.995Z,98110.59
2022-12-12T04:13:36.711Z,98103.53
2022-12-12T04:15:26.874Z,98098.38
2022-12-12T04:17:05.713Z,98096.81
2022-12-12T04:18:44.274Z,98097.91
2022-12-12T04:20:42.765Z,98088.50
2022-12-12T04:22:42.823Z,98088.44
2022-12-12T04:24:24.180Z,98100.69
2022-12-12T04:26:29.092Z,98105.28
2022-12-12T04:28:07.722Z,98099.63
2022-12-12T04:29:47.876Z,98106.63
2022-12-12T04:31:25.558Z,98113.47
2022-12-12T04:33:06.957Z,98127.31
2022-12-12T04:34:44.369Z,98122.84
2022-12-12T04:36:21.839Z,98131.63
2022-12-12T04:38:00.151Z,98138.94
2022-12-12T04:39:36.498Z,98128.56
2022-12-12T04:41:13.163Z,98134.13
2022-12-12T04:42:52.821Z,98138.69
2022-12-12T04:44:30.595Z,98131.09
2022-12-12T04:46:09.224Z,98128.66
2022-12-12T04:47:45.870Z,98128.66
2022-12-12T04:49:23.469Z,98122.50
2022-12-12T04:50:58.702Z,98133.63
2022-12-12T04:52:34.715Z,98135.25
2022-12-12T04:54:13.496Z,98141.16
2022-12-12T04:55:52.739Z,98145.44
2022-12-12T04:57:31.127Z,98148.97
2022-12-12T04:59:05.256Z,98143.72
2022-12-12T05:00:47.619Z,98141.88
2022-12-12T05:02:29.791Z,98138.34
2022-12-12T05:04:08.980Z,98140.19
2022-12-12T05:05:47.866Z,98148.28
2022-12-12T05:07:29.352Z,98145.03
2022-12-12T05:09:02.851Z,98144.97
2022-12-12T05:10:44.129Z,98140.00
2022-12-12T05:12:17.612Z,98157.00
2022-12-12T05:13:51.513Z,98159.47
2022-12-12T05:15:26.245Z,98154.84
2022-12-12T05:17:05.200Z,98167.91
2022-12-12T05:18:38.458Z,98159.34
2022-12-12T05:20:11.922Z,98153.41
2022-12-12T05:21:45.124Z,98159.22
2022-12-12T05:23:18.998Z,98165.28
2022-12-12T05:24:52.135Z,98173.84
2022-12-12T05:26:29.194Z,98179.78
2022-12-12T05:28:02.319Z,98172.59
2022-12-12T05:29:35.690Z,98168.94
2022-12-12T05:31:08.934Z,98177.72
2022-12-12T05:32:42.158Z,98170.75
2022-12-12T05:34:15.349Z,98170.63
2022-12-12T05:35:48.907Z,98174.91
2022-12-12T05:37:22.132Z,98177.47
2022-12-12T05:38:55.425Z,98181.03
2022-12-12T05:40:28.938Z,98187.97
2022-12-12T05:42:03.656Z,98189.72
2022-12-12T05:43:37.251Z,98191.41
2022-12-12T05:45:12.662Z,98191.63
2022-12-12T05:46:45.988Z,98179.22
2022-12-12T05:48:24.146Z,98190.53
2022-12-12T05:49:57.744Z,98188.91
2022-12-12T05:51:31.331Z,98184.31
2022-12-12T05:53:04.590Z,98189.44
2022-12-12T05:54:38.133Z,98192.88
2022-12-12T05:56:12.676Z,98192.88
2022-12-12T05:57:47.232Z,98195.47
2022-12-12T05:59:20.399Z,98192.78
2022-12-12T06:00:57.355Z,98197.88
2022-12-12T06:02:34.788Z,98208.41
2022-12-12T06:04:08.062Z,98205.75
2022-12-12T06:05:41.254Z,98214.34
2022-12-12T06:07:14.612Z,98217.75
2022-12-12T06:08:47.762Z,98222.84
2022-12-12T06:10:21.104Z,98221.84
2022-12-12T06:11:55.346Z,98238.47
2022-12-12T06:13:30.098Z,98240.13
2022-12-12T06:15:03.266Z,98241.84
2022-12-12T06:16:36.841Z,98235.69
2022-12-12T06:18:12.263Z,98245.22
2022-12-12T06:19:45.790Z,98251.31
2022-12-12T06:21:19.315Z,98241.66
2022-12-12T06:22:53.944Z,98240.78
2022-12-12T06:24:27.234Z,98236.69
2022-12-12T06:26:00.778Z,98239.56
2022-12-12T06:27:33.963Z,98239.78
2022-12-12T06:29:08.543Z,98238.31
2022-12-12T06:30:41.812Z,98231.47
2022-12-12T06:32:15.557Z,98238.31
2022-12-12T06:33:48.728Z,98244.38
2022-12-12T06:35:22.004Z,98246.19
2022-12-12T06:36:55.312Z,98238.31
2022-12-12T06:38:29.174Z,98243.44
2022-12-12T06:40:02.394Z,98241.69
2022-12-12T06:41:36.041Z,98239.06
2022-12-12T06:43:09.238Z,98245.84
2022-12-12T06:44:44.450Z,98242.25
2022-12-12T06:46:20.040Z,98235.91
2022-12-12T06:47:53.234Z,98237.50
2022-12-12T06:49:26.384Z,98230.56
2022-12-12T06:51:00.578Z,98231.53
2022-12-12T06:52:33.944Z,98229.06
2022-12-12T06:54:07.329Z,98235.03
2022-12-12T06:55:43.663Z,98237.63
2022-12-12T06:57:17.087Z,98233.19
2022-12-12T06:58:50.616Z,98235.75
2022-12-12T07:00:25.254Z,98232.16
2022-12-12T07:01:58.779Z,98227.13
2022-12-12T07:03:32.819Z,98223.56
2022-12-12T07:05:08.037Z,98230.44
2022-12-12T07:06:41.640Z,98227.38
2022-12-12T07:08:15.060Z,98224.66
2022-12-12T07:09:48.614Z,98223.66
2022-12-12T07:11:23.769Z,98223.00
2022-12-12T07:12:57.661Z,98219.56
2022-12-12T07:14:30.924Z,98226.41
2022-12-12T07:16:06.346Z,98237.72
2022-12-12T07:17:39.805Z,98240.41
2022-12-12T07:19:13.020Z,98242.97
2022-12-12T07:20:47.320Z,98259.41
2022-12-12T07:22:20.885Z,98255.75
2022-12-12T07:23:54.109Z,98254.72
2022-12-12T07:25:27.439Z,98260.84
2022-12-12T07:27:00.597Z,98265.22
2022-12-12T07:28:34.519Z,98260.06
2022-12-12T07:30:08.645Z,98271.69
2022-12-12T07:31:43.312Z,98275.41
2022-12-12T07:33:18.261Z,98270.41
2022-12-12T07:34:51.994Z,98271.44
2022-12-12T07:36:25.143Z,98273.06
2022-12-12T07:37:58.366Z,98286.16
2022-12-12T07:39:31.983Z,98279.06
2022-12-12T07:41:06.760Z,98282.38
2022-12-12T07:42:40.141Z,98285.69
2022-12-12T07:44:13.291Z,98292.75
2022-12-12T07:45:46.586Z,98287.59
2022-12-12T07:47:21.510Z,98290.56
2022-12-12T07:48:55.231Z,98286.13
2022-12-12T07:50:28.487Z,98285.19
2022-12-12T07:52:01.723Z,98287.78
2022-12-12T07:53:35.379Z,98298.91
2022-12-12T07:55:09.238Z,98296.84
2022-12-12T07:56:42.469Z,98299.47
2022-12-12T07:58:15.570Z,98293.28
2022-12-12T07:59:48.992Z,98292.31
2022-12-12T08:01:24.224Z,98294.88
2022-12-12T08:02:58.951Z,98297.47
2022-12-12T08:04:32.182Z,98301.78
2022-12-12T08:06:07.024Z,98312.19
2022-12-12T08:07:40.208Z,98311.09
2022-12-12T08:09:13.494Z,98316.13
2022-12-12T08:10:46.701Z,98318.50
2022-12-12T08:12:20.438Z,98322.03
2022-12-12T08:13:54.357Z,98334.16
2022-12-12T08:15:27.565Z,98334.25
2022-12-12T08:17:00.850Z,98343.31
2022-12-12T08:18:35.933Z,98343.31
2022-12-12T08:20:10.327Z,98342.47
2022-12-12T08:21:44.659Z,98348.81
2022-12-12T08:23:17.881Z,98354.31
2022-12-12T08:24:51.463Z,98370.44
2022-12-12T08:26:25.970Z,98359.44
2022-12-12T08:27:59.132Z,98366.72
2022-12-12T08:29:32.322Z,98371.03
2022-12-12T08:31:06.016Z,98377.88
2022-12-12T08:32:39.162Z,98372.56
2022-12-12T08:34:13.871Z,98381.41
2022-12-12T08:35:47.354Z,98372.72
2022-12-12T08:37:21.750Z,98375.41
2022-12-12T08:38:55.090Z,98372.78
2022-12-12T08:40:28.386Z,98378.91
2022-12-12T08:42:01.592Z,98376.91
2022-12-12T08:43:35.299Z,98376.53
2022-12-12T08:45:09.140Z,98382.44
2022-12-12T08:46:42.750Z,98375.34
2022-12-12T08:48:15.960Z,98380.66
2022-12-12T08:49:50.863Z,98384.16
2022-12-12T08:51:24.211Z,98375.41
2022-12-12T08:52:57.327Z,98377.75
2022-12-12T08:54:30.534Z,98383.69
2022-12-12T08:56:04.262Z,98383.63
2022-12-12T08:57:37.509Z,98382.53
2022-12-12T08:59:10.915Z,98387.56
2022-12-12T09:00:44.232Z,98382.97
2022-12-12T09:02:18.056Z,98379.66
2022-12-12T09:03:52.677Z,98383.19
2022-12-12T09:05:27.288Z,98377.81
2022-12-12T09:07:04.892Z,98383.75
2022-12-12T09:08:42.496Z,98388.22
2022-12-12T09:10:15.724Z,98384.28
2022-12-12T09:11:48.857Z,98395.78
2022-12-12T09:13:22.069Z,98384.19
2022-12-12T09:14:55.729Z,98390.03
2022-12-12T09:16:30.145Z,98386.97
2022-12-12T09:18:03.536Z,98397.28
2022-12-12T09:19:36.888Z,98395.91
2022-12-12T09:21:11.812Z,98408.16
2022-12-12T09:22:45.186Z,98393.28
2022-12-12T09:24:18.468Z,98397.50
2022-12-12T09:25:52.324Z,98394.09
2022-12-12T09:27:25.709Z,98404.72
2022-12-12T09:28:58.954Z,98401.03
2022-12-12T09:30:32.406Z,98402.53
2022-12-12T10:24:11.783Z,98408.44
2022-12-12T10:25:50.978Z,98412.34
2022-12-12T10:27:25.443Z,98409.72
2022-12-12T10:29:03.920Z,98403.63
2022-12-12T10:30:53.547Z,98410.38
2022-12-12T10:32:37.811Z,98410.38
2022-12-12T10:34:26.330Z,98412.06
2022-12-12T10:36:11.635Z,98413.56
2022-12-12T10:37:53.991Z,98407.25
2022-12-12T10:39:37.115Z,98408.97
2022-12-12T10:41:19.200Z,98411.88
2022-12-12T10:43:01.465Z,98410.28
2022-12-12T10:45:06.029Z,98402.47
2022-12-12T10:46:44.657Z,98397.88
2022-12-12T10:48:17.944Z,98397.44
2022-12-12T10:49:54.718Z,98398.13
2022-12-12T10:51:32.088Z,98388.38
2022-12-12T10:53:08.486Z,98385.66
2022-12-12T10:54:47.958Z,98382.09
2022-12-12T10:56:24.477Z,98382.34
2022-12-12T10:58:03.824Z,98384.16
2022-12-12T10:59:45.762Z,98373.75
2022-12-12T11:01:38.461Z,98382.78
2022-12-12T11:03:26.948Z,98376.19
2022-12-12T11:05:17.389Z,98377.91
2022-12-12T11:06:53.720Z,98372.78
2022-12-12T11:08:29.937Z,98360.91
2022-12-12T11:10:22.099Z,98377.28
2022-12-12T11:12:00.979Z,98360.38
2022-12-12T11:13:40.878Z,98358.44
2022-12-12T11:15:18.609Z,98379.09
2022-12-12T11:16:52.023Z,98368.56
2022-12-12T11:18:26.458Z,98375.94
2022-12-12T11:20:02.411Z,98373.41
2022-12-12T11:21:37.464Z,98375.81
2022-12-12T11:23:19.039Z,98369.09
2022-12-12T11:24:53.458Z,98384.03
2022-12-12T11:26:30.407Z,98379.75
2022-12-12T11:28:06.872Z,98380.63
2022-12-12T11:29:46.013Z,98378.69
2022-12-12T11:31:24.454Z,98381.84
2022-12-12T11:32:58.685Z,98381.19
2022-12-12T11:34:35.035Z,98377.44
2022-12-12T11:36:09.012Z,98381.78
2022-12-12T11:37:51.321Z,98387.34
2022-12-12T11:39:29.381Z,98381.72
2022-12-12T11:41:05.550Z,98393.56
2022-12-12T11:42:41.520Z,98386.16
2022-12-12T11:44:25.748Z,98383.25
2022-12-12T11:46:02.475Z,98383.81
2022-12-12T11:47:42.185Z,98369.88
2022-12-12T11:49:21.375Z,98360.09
2022-12-12T11:50:54.544Z,98371.44
2022-12-12T11:52:32.865Z,98362.47
2022-12-12T11:54:13.242Z,98375.53
2022-12-12T11:55:56.192Z,98377.16
2022-12-12T11:57:49.864Z,98373.28
2022-12-12T11:59:46.210Z,98369.66
2022-12-12T12:01:28.469Z,98356.28
2022-12-12T12:03:38.886Z,98363.41
2022-12-12T12:05:25.114Z,98364.03
2022-12-12T12:07:12.607Z,98362.09
2022-12-12T12:09:00.546Z,98354.06
2022-12-12T12:10:47.984Z,98348.38
2022-12-12T12:12:28.334Z,98344.56
2022-12-12T12:14:25.285Z,98351.25
2022-12-12T12:16:09.679Z,98357.97
2022-12-12T12:18:05.629Z,98354.28
2022-12-12T12:19:47.333Z,98347.44
2022-12-12T12:21:32.445Z,98345.22
2022-12-12T12:23:21.498Z,98343.63
2022-12-12T12:25:11.183Z,98338.28
2022-12-12T12:26:54.700Z,98338.88
2022-12-12T12:28:53.971Z,98343.78
2022-12-12T12:30:34.885Z,98339.69
2022-12-12T12:32:15.088Z,98339.69
2022-12-12T12:34:03.744Z,98341.22
2022-12-12T12:35:50.055Z,98339.28
2022-12-12T12:37:36.151Z,98342.59
2022-12-12T12:39:21.415Z,98338.88
2022-12-12T12:41:16.369Z,98342.44
2022-12-12T12:43:02.060Z,98346.19
2022-12-12T12:44:47.785Z,98348.38
2022-12-12T12:46:31.683Z,98354.06
2022-12-12T12:48:11.329Z,98352.38
2022-12-12T12:49:52.506Z,98352.19
2022-12-12T12:51:30.849Z,98345.09
2022-12-12T12:53:09.179Z,98338.00
2022-12-12T12:54:46.869Z,98344.16
2022-12-12T12:56:26.736Z,98341.53
2022-12-12T12:58:04.430Z,98340.75
2022-12-12T12:59:41.629Z,98339.19
2022-12-12T13:01:18.951Z,98328.59
2022-12-12T13:02:59.291Z,98325.22
2022-12-12T13:04:37.963Z,98323.56
2022-12-12T13:06:17.337Z,98323.44
2022-12-12T13:07:58.300Z,98334.13
2022-12-12T13:09:43.127Z,98333.13
2022-12-12T13:11:22.697Z,98332.88
2022-12-12T13:12:58.865Z,98325.72
2022-12-12T13:14:41.017Z,98325.47
2022-12-12T13:16:18.464Z,98326.97
2022-12-12T13:18:01.311Z,98336.13
2022-12-12T13:19:38.837Z,98342.53
2022-12-12T13:21:21.552Z,98345.22
2022-12-12T13:23:12.198Z,98345.53
2022-12-12T13:24:56.308Z,98344.47
2022-12-12T13:26:43.643Z,98347.09
2022-12-12T13:28:19.836Z,98354.38
2022-12-12T13:29:58.070Z,98349.34
2022-12-12T13:32:09.181Z,98351.03
2022-12-12T13:33:47.611Z,98354.31
2022-12-12T13:35:29.023Z,98353.50
2022-12-12T13:37:07.556Z,98333.78
2022-12-12T13:38:42.406Z,98340.19
2022-12-12T13:40:26.763Z,98345.31
2022-12-12T13:42:02.580Z,98346.53
2022-12-12T13:43:46.961Z,98343.81
2022-12-12T13:45:46.142Z,98359.41
2022-12-12T13:47:58.362Z,98352.69
2022-12-12T13:49:48.983Z,98342.16
2022-12-12T13:51:36.793Z,98353.56
2022-12-12T13:53:20.417Z,98343.22
2022-12-12T13:54:58.319Z,98346.72
2022-12-12T13:56:35.773Z,98327.41
2022-12-12T13:58:20.896Z,98343.03
2022-12-12T14:00:21.965Z,98344.59
2022-12-12T14:01:57.235Z,98347.72
2022-12-12T14:03:32.395Z,98349.41
2022-12-12T14:05:17.199Z,98329.28
2022-12-12T14:07:01.684Z,98348.28
2022-12-12T14:08:38.859Z,98344.03
2022-12-12T14:10:21.469Z,98349.28
2022-12-12T14:11:54.719Z,98357.97
2022-12-12T14:13:44.983Z,98365.84
2022-12-12T14:15:28.114Z,98366.53
2022-12-12T14:17:02.901Z,98378.91
2022-12-12T14:18:40.963Z,98355.53
2022-12-12T14:20:27.727Z,98357.97
2022-12-12T14:22:00.939Z,98357.97
2022-12-12T14:23:36.890Z,98365.19
2022-12-12T14:25:21.654Z,98363.09
2022-12-12T14:26:55.078Z,98359.69
2022-12-12T14:28:29.764Z,98365.84
2022-12-12T14:30:03.340Z,98374.66
2022-12-12T14:31:42.926Z,98374.50
2022-12-12T14:33:58.541Z,98387.59
2022-12-12T14:35:42.659Z,98379.53
2022-12-12T14:37:47.008Z,98392.03
2022-12-12T14:39:52.697Z,98392.25
2022-12-12T14:41:35.877Z,98390.78
2022-12-12T14:43:21.985Z,98399.97
2022-12-12T14:44:56.467Z,98399.06
2022-12-12T14:46:31.624Z,98405.22
2022-12-12T14:48:22.627Z,98405.38
2022-12-12T14:50:10.774Z,98395.78
2022-12-12T14:51:46.763Z,98396.91
2022-12-12T14:53:22.822Z,98397.09
2022-12-12T14:54:56.051Z,98408.22
2022-12-12T14:56:33.141Z,98402.31
2022-12-12T14:58:06.503Z,98395.31
2022-12-12T14:59:42.648Z,98395.44
2022-12-12T15:01:20.836Z,98397.16
2022-12-12T15:02:54.768Z,98399.94
2022-12-12T15:04:32.667Z,98401.81
2022-12-12T15:06:37.700Z,98392.50
2022-12-12T15:08:21.002Z,98407.28
2022-12-12T15:09:54.398Z,98404.72
2022-12-12T15:11:31.823Z,98408.38
2022-12-12T15:13:21.002Z,98403.13
2022-12-12T15:14:57.127Z,98399.63
2022-12-12T15:16:42.730Z,98417.63
2022-12-12T15:18:22.323Z,98427.22
2022-12-12T15:19:59.793Z,98416.59
2022-12-12T15:21:34.262Z,98429.31
2022-12-12T15:23:09.182Z,98420.72
2022-12-12T15:24:44.391Z,98424.25
2022-12-12T15:26:20.247Z,98424.50
2022-12-12T15:27:56.810Z,98426.09
2022-12-12T15:29:32.231Z,98428.78
2022-12-12T15:31:07.267Z,98428.03
2022-12-12T15:32:41.555Z,98424.38
2022-12-12T15:34:37.112Z,98419.00
2022-12-12T15:36:27.936Z,98421.88
2022-12-12T15:38:03.804Z,98421.53
2022-12-12T15:39:39.777Z,98422.44
2022-12-12T15:41:16.180Z,98424.38
2022-12-12T15:42:54.604Z,98435.13
2022-12-12T15:44:28.701Z,98423.03
2022-12-12T15:46:06.981Z,98438.44
2022-12-12T15:47:40.338Z,98429.53
2022-12-12T15:49:39.142Z,98436.25
2022-12-12T15:51:18.325Z,98426.63
2022-12-12T15:53:06.817Z,98436.03
2022-12-12T15:54:47.527Z,98433.47
2022-12-12T15:56:28.869Z,98445.41
2022-12-12T15:58:02.713Z,98439.34
2022-12-12T15:59:36.243Z,98445.28
2022-12-12T16:01:20.417Z,98441.91
2022-12-12T16:03:03.473Z,98440.38
2022-12-12T16:04:37.122Z,98438.41
2022-12-12T16:06:18.276Z,98444.50
2022-12-12T16:07:51.927Z,98453.97
2022-12-12T16:09:30.049Z,98457.75
2022-12-12T16:11:05.933Z,98461.13
2022-12-12T16:13:23.392Z,98455.69
2022-12-12T16:14:57.071Z,98458.22
2022-12-12T16:16:54.590Z,98465.16
2022-12-12T16:18:29.184Z,98455.47
2022-12-12T16:20:06.520Z,98450.97
2022-12-12T16:22:03.624Z,98447.56
2022-12-12T16:23:43.817Z,98456.50
2022-12-12T16:25:22.014Z,98458.22
2022-12-12T16:26:59.663Z,98447.69
2022-12-12T16:28:34.814Z,98451.13
2022-12-12T16:30:09.462Z,98442.31
2022-12-12T16:31:45.348Z,98448.41
2022-12-12T16:33:26.314Z,98438.81
2022-12-12T16:35:00.138Z,98446.66
2022-12-12T16:36:40.022Z,98439.63
2022-12-12T16:38:16.991Z,98451.13
2022-12-12T16:39:50.355Z,98437.28
2022-12-12T16:41:23.662Z,98449.38
2022-12-12T16:43:10.819Z,98453.22
2022-12-12T16:44:47.850Z,98458.69
2022-12-12T16:46:23.860Z,98457.50
2022-12-12T16:47:59.080Z,98458.22
2022-12-12T16:49:32.790Z,98451.31
2022-12-12T16:51:08.687Z,98461.09
2022-12-12T16:52:42.118Z,98464.00
2022-12-12T16:54:18.063Z,98455.44
2022-12-12T16:55:54.251Z,98469.38
2022-12-12T16:57:27.434Z,98472.91
2022-12-12T16:59:00.978Z,98467.44
2022-12-12T17:00:35.684Z,98475.28
2022-12-12T17:02:20.063Z,98472.69
2022-12-12T17:03:54.140Z,98472.59
2022-12-12T17:05:30.393Z,98485.03
2022-12-12T17:07:08.034Z,98480.59
2022-12-12T17:08:42.040Z,98485.03
2022-12-12T17:10:16.993Z,98473.94
2022-12-12T17:11:50.559Z,98479.28
2022-12-12T17:13:25.644Z,98482.88
2022-12-12T17:14:59.032Z,98485.47
2022-12-12T17:16:33.890Z,98484.34
2022-12-12T17:18:07.291Z,98477.22
2022-12-12T17:19:40.547Z,98480.19
2022-12-12T17:21:13.987Z,98480.53
2022-12-12T17:22:47.711Z,98489.63
2022-12-12T17:24:21.765Z,98500.13
2022-12-12T17:26:02.501Z,98492.25
2022-12-12T17:27:37.731Z,98502.72
2022-12-12T17:29:11.647Z,98506.25
2022-12-12T17:30:45.775Z,98515.03
2022-12-12T17:32:24.367Z,98511.66
2022-12-12T17:33:58.252Z,98517.06
2022-12-12T17:35:31.671Z,98504.28
2022-12-12T17:37:05.066Z,98510.00
2022-12-12T17:38:39.179Z,98515.69
2022-12-12T17:40:14.218Z,98535.31
2022-12-12T17:41:50.168Z,98540.97
2022-12-12T17:43:25.291Z,98552.00
2022-12-12T17:44:58.617Z,98557.84
2022-12-12T17:46:33.302Z,98556.34
2022-12-12T17:48:08.451Z,98566.25
2022-12-12T17:49:42.652Z,98576.00
2022-12-12T17:51:18.521Z,98582.13
2022-12-12T17:52:52.836Z,98582.25
2022-12-12T17:54:26.879Z,98567.56
2022-12-12T17:56:07.677Z,98582.44
2022-12-12T17:57:41.475Z,98584.28
2022-12-12T17:59:16.066Z,98583.63
2022-12-12T18:00:49.764Z,98590.13
2022-12-12T18:02:23.351Z,98575.44
2022-12-12T18:03:59.819Z,98585.94
2022-12-12T18:05:33.551Z,98588.66
2022-12-12T18:07:07.492Z,98597.47
2022-12-12T18:08:42.206Z,98594.13
2022-12-12T18:10:15.827Z,98600.16
2022-12-12T18:11:49.277Z,98595.88
2022-12-12T18:13:22.536Z,98603.78
2022-12-12T18:14:56.195Z,98601.19
2022-12-12T18:16:32.180Z,98590.13
2022-12-12T18:18:05.793Z,98608.44
2022-12-12T18:19:40.523Z,98626.75
2022-12-12T18:21:29.240Z,98621.63
2022-12-12T18:23:09.116Z,98631.00
2022-12-12T18:24:42.258Z,98626.63
2022-12-12T18:26:21.746Z,98621.44
2022-12-12T18:27:56.017Z,98624.13
2022-12-12T18:29:29.571Z,98628.63
2022-12-12T18:31:03.059Z,98626.91
2022-12-12T18:32:36.886Z,98627.69
2022-12-12T18:34:11.013Z,98629.63
2022-12-12T18:35:46.668Z,98607.19
2022-12-12T18:37:20.304Z,98615.81
2022-12-12T18:38:53.956Z,98622.81
2022-12-12T18:40:28.036Z,98621.00
2022-12-12T18:42:01.570Z,98614.97
2022-12-12T18:43:35.873Z,98623.03
2022-12-12T18:45:12.069Z,98636.97
2022-12-12T18:46:45.263Z,98640.38
2022-12-12T18:48:18.634Z,98636.84
2022-12-12T18:49:52.720Z,98612.63
2022-12-12T18:51:28.931Z,98628.09
2022-12-12T18:53:02.182Z,98630.66
2022-12-12T18:54:35.779Z,98636.91
2022-12-12T18:56:10.260Z,98641.97
2022-12-12T18:57:44.919Z,98635.75
2022-12-12T18:59:18.504Z,98634.84
2022-12-12T19:00:51.826Z,98637.44
2022-12-12T19:02:25.956Z,98647.81
2022-12-12T19:04:04.538Z,98644.28
2022-12-12T19:05:42.121Z,98647.69
2022-12-12T19:07:18.552Z,98651.16
2022-12-12T19:08:52.300Z,98650.22
2022-12-12T19:10:25.809Z,98658.91
2022-12-12T19:12:02.663Z,98653.72
2022-12-12T19:13:36.524Z,98650.38
2022-12-12T19:15:19.187Z,98651.22
2022-12-12T19:16:52.786Z,98652.03
2022-12-12T19:18:26.065Z,98656.28
2022-12-12T19:19:59.389Z,98655.50
2022-12-12T19:21:33.849Z,98653.84
2022-12-12T19:23:08.498Z,98658.25
2022-12-12T19:24:41.771Z,98667.78
2022-12-12T19:26:16.542Z,98657.25
2022-12-12T19:27:51.513Z,98660.69
2022-12-12T19:29:24.840Z,98667.56
2022-12-12T19:30:58.255Z,98667.50
2022-12-12T19:32:31.615Z,98663.16
2022-12-12T19:34:05.915Z,98669.25
2022-12-12T19:35:39.351Z,98672.75
2022-12-12T19:37:12.619Z,98665.97
2022-12-12T19:38:48.315Z,98672.13
2022-12-12T19:40:21.568Z,98677.56
2022-12-12T19:41:54.916Z,98683.53
2022-12-12T19:43:30.376Z,98688.75
2022-12-12T19:45:04.756Z,98693.06
2022-12-12T19:46:37.948Z,98691.31
2022-12-12T19:48:11.493Z,98700.94
2022-12-12T19:49:44.740Z,98695.00
2022-12-12T19:51:20.347Z,98698.56
2022-12-12T19:52:53.630Z,98690.75
2022-12-12T19:54:28.491Z,98696.03
2022-12-12T19:56:01.954Z,98694.34
2022-12-12T19:57:35.269Z,98703.16
2022-12-12T19:59:09.500Z,98705.06
2022-12-12T20:00:43.966Z,98698.94
2022-12-12T20:02:17.168Z,98706.75